Time;durP1;ratioP1;P1;durP2;ratioP2;P2;SDS_P1;SDS_P2;PMS_P1;PMS_P2;Temp;Humidity;BMP_temperature;BMP_pressure;BME280_temperature;BME280_humidity;BME280_pressure;Samples;Min_cycle;Max_cycle;Signal;HPM_P1;HPM_P2
2021/09/11 00:01:53;;;;;;;9.65;5.53;;;18.10;99.90;;;;;;4979208;28;20030;-91
2021/09/11 00:04:19;;;;;;;7.10;5.60;;;18.10;99.90;;;;;;4947025;29;20481;-91
2021/09/11 00:06:44;;;;;;;6.72;6.03;;;18.00;99.90;;;;;;4979184;28;20110;-92
2021/09/11 00:09:10;;;;;;;10.65;9.30;;;18.10;99.90;;;;;;4962765;28;20054;-92
2021/09/11 00:11:36;;;;;;;10.02;7.53;;;18.10;99.90;;;;;;4985697;28;20037;-88
2021/09/11 00:14:01;;;;;;;7.03;6.32;;;18.00;99.90;;;;;;4969640;28;20054;-92
2021/09/11 00:16:27;;;;;;;7.53;5.57;;;18.00;99.90;;;;;;4969268;28;20035;-93
2021/09/11 00:18:53;;;;;;;7.65;6.45;;;17.90;99.90;;;;;;4968748;28;20066;-94
2021/09/11 00:21:18;;;;;;;11.38;8.65;;;17.90;99.90;;;;;;4969418;28;20034;-93
2021/09/11 00:23:45;;;;;;;11.15;8.00;;;17.90;99.90;;;;;;4953392;28;20383;-90
2021/09/11 00:26:10;;;;;;;9.55;7.70;;;17.90;99.90;;;;;;4972251;28;20030;-93
2021/09/11 00:28:36;;;;;;;8.60;6.60;;;17.80;99.90;;;;;;4972799;28;20084;-90
2021/09/11 00:31:02;;;;;;;7.45;5.75;;;17.70;99.90;;;;;;4973069;28;20034;-90
2021/09/11 00:33:27;;;;;;;6.97;6.28;;;17.80;99.90;;;;;;4972884;28;20031;-91
2021/09/11 00:35:53;;;;;;;6.85;6.15;;;17.70;99.90;;;;;;4972857;28;20031;-88
2021/09/11 00:38:18;;;;;;;8.63;7.05;;;17.70;99.90;;;;;;4972652;28;20030;-93
2021/09/11 00:41:06;;;;;;;7.55;6.32;;;17.70;99.90;;;;;;4972748;28;20062;-93
2021/09/11 00:43:47;;;;;;;8.10;6.30;;;17.60;99.90;;;;;;4972291;28;20050;-92
2021/09/11 00:46:14;;;;;;;7.18;5.40;;;17.50;99.90;;;;;;4956535;28;20066;-91
2021/09/11 00:48:40;;;;;;;6.32;5.68;;;17.40;99.90;;;;;;4989342;28;20042;-91
2021/09/11 00:51:07;;;;;;;7.53;6.22;;;17.40;99.90;;;;;;5008418;28;20117;-90
2021/09/11 00:53:33;;;;;;;8.68;6.10;;;17.30;99.90;;;;;;4991926;28;20045;-93
2021/09/11 00:55:59;;;;;;;7.63;5.53;;;17.30;99.90;;;;;;5007985;28;20058;-90
2021/09/11 00:58:26;;;;;;;6.60;5.78;;;17.30;99.90;;;;;;5008071;28;20030;-92
2021/09/11 01:00:52;;;;;;;8.85;6.40;;;17.20;99.90;;;;;;4991984;28;20173;-90
2021/09/11 01:03:17;;;;;;;7.95;6.97;;;17.20;99.90;;;;;;4991469;28;20041;-92
2021/09/11 01:05:44;;;;;;;9.00;6.30;;;17.20;99.90;;;;;;4991590;28;20039;-91
2021/09/11 01:08:10;;;;;;;9.93;6.28;;;17.10;99.90;;;;;;5007183;28;20030;-87
2021/09/11 01:10:40;;;;;;;9.13;7.75;;;17.10;99.90;;;;;;4991373;28;20036;-91
2021/09/11 01:13:11;;;;;;;7.03;6.25;;;17.00;99.90;;;;;;5007866;28;20122;-91
2021/09/11 01:15:39;;;;;;;8.38;6.35;;;17.00;99.90;;;;;;4991459;28;20065;-91
2021/09/11 01:18:09;;;;;;;7.78;6.40;;;17.00;99.90;;;;;;4988035;28;20121;-93
2021/09/11 01:20:36;;;;;;;7.40;6.43;;;17.00;99.90;;;;;;4972109;28;20059;-90
2021/09/11 01:23:02;;;;;;;8.18;6.20;;;17.00;99.90;;;;;;4988357;28;20043;-89
2021/09/11 01:25:28;;;;;;;8.60;6.80;;;16.90;99.90;;;;;;4971678;28;20045;-89
2021/09/11 01:27:55;;;;;;;8.57;6.00;;;17.00;99.90;;;;;;4971451;28;20555;-88
2021/09/11 01:30:21;;;;;;;8.70;6.50;;;17.10;99.90;;;;;;5004177;28;20042;-89
2021/09/11 01:32:49;;;;;;;7.18;5.65;;;17.10;99.90;;;;;;4971712;28;20034;-90
2021/09/11 01:35:15;;;;;;;8.38;7.45;;;17.00;99.90;;;;;;4971648;28;20117;-89
2021/09/11 01:37:41;;;;;;;8.63;6.63;;;17.10;99.90;;;;;;4970957;28;20094;-88
2021/09/11 01:40:08;;;;;;;8.95;6.22;;;17.00;99.90;;;;;;4971560;28;20097;-89
2021/09/11 01:42:34;;;;;;;7.63;5.93;;;17.00;99.90;;;;;;5003877;28;20035;-90
2021/09/11 01:45:05;;;;;;;6.65;5.53;;;17.00;99.90;;;;;;4971603;28;20077;-88
2021/09/11 01:47:30;;;;;;;6.80;5.82;;;17.00;99.90;;;;;;4971420;28;20027;-90
2021/09/11 01:49:56;;;;;;;7.95;5.55;;;17.00;99.90;;;;;;4970889;28;20054;-92
2021/09/11 01:52:22;;;;;;;7.13;4.97;;;17.00;99.90;;;;;;4971533;28;20034;-91
2021/09/11 01:54:48;;;;;;;6.03;5.18;;;17.00;99.90;;;;;;4971260;28;20066;-92
2021/09/11 01:57:14;;;;;;;7.95;6.00;;;16.90;99.90;;;;;;4971016;28;20042;-90
2021/09/11 01:59:41;;;;;;;7.05;5.57;;;16.80;99.90;;;;;;4970742;28;20472;-92
2021/09/11 02:02:08;;;;;;;6.32;4.97;;;16.80;99.90;;;;;;4970721;28;20058;-91
2021/09/11 02:04:34;;;;;;;8.38;5.55;;;16.80;99.90;;;;;;4987278;28;20038;-93
2021/09/11 02:07:02;;;;;;;7.20;5.30;;;16.70;99.90;;;;;;4971339;28;20034;-90
2021/09/11 02:09:28;;;;;;;7.32;4.82;;;16.70;99.90;;;;;;4986119;28;20473;-92
2021/09/11 02:11:55;;;;;;;6.43;4.93;;;16.60;99.90;;;;;;4990397;28;20029;-92
2021/09/11 02:14:20;;;;;;;7.10;5.55;;;16.60;99.90;;;;;;4990587;28;20035;-92
2021/09/11 02:16:46;;;;;;;6.03;3.88;;;16.60;99.90;;;;;;5006411;28;20033;-93
2021/09/11 02:19:12;;;;;;;7.80;5.32;;;16.50;99.90;;;;;;5006371;28;20035;-93
2021/09/11 02:21:38;;;;;;;10.82;5.88;;;16.50;99.90;;;;;;4974206;28;20030;-90
2021/09/11 02:24:04;;;;;;;13.00;6.60;;;16.50;99.90;;;;;;4990502;28;20054;-91
2021/09/11 02:26:30;;;;;;;8.93;6.78;;;16.50;99.90;;;;;;4973909;28;20467;-92
2021/09/11 02:28:55;;;;;;;10.50;6.88;;;16.50;99.90;;;;;;5005995;28;20046;-93
2021/09/11 02:31:21;;;;;;;10.25;7.05;;;16.50;99.90;;;;;;4990079;28;20027;-93
2021/09/11 02:33:49;;;;;;;10.77;7.05;;;16.50;99.90;;;;;;4990232;28;20042;-92
2021/09/11 02:36:15;;;;;;;8.93;6.00;;;16.40;99.90;;;;;;4989922;28;20106;-90
2021/09/11 02:38:41;;;;;;;11.20;8.15;;;16.40;99.90;;;;;;4955346;28;20034;-94
2021/09/11 02:41:07;;;;;;;11.27;7.57;;;16.40;99.90;;;;;;4968078;28;20042;-94
2021/09/11 02:43:32;;;;;;;14.23;8.63;;;16.40;99.90;;;;;;4985703;28;20038;-92
2021/09/11 02:46:18;;;;;;;12.57;8.10;;;16.40;99.90;;;;;;4969179;28;20085;-94
2021/09/11 02:48:44;;;;;;;14.35;9.30;;;16.40;99.90;;;;;;4964988;28;20062;-95
2021/09/11 02:51:10;;;;;;;11.70;7.85;;;16.30;99.90;;;;;;4933840;29;20043;-94
2021/09/11 02:53:35;;;;;;;12.52;8.57;;;16.30;99.90;;;;;;4949411;29;20039;-92
2021/09/11 02:56:01;;;;;;;11.85;7.18;;;16.30;99.90;;;;;;4948099;29;20031;-94
2021/09/11 02:58:26;;;;;;;13.05;9.10;;;16.30;99.90;;;;;;4949333;29;20023;-92
2021/09/11 03:00:52;;;;;;;14.05;9.77;;;16.20;99.90;;;;;;4949787;29;20590;-91
2021/09/11 03:03:19;;;;;;;11.18;7.53;;;16.20;99.90;;;;;;4949384;29;20027;-92
2021/09/11 03:05:45;;;;;;;11.93;7.85;;;16.20;99.90;;;;;;4949461;29;20514;-92
2021/09/11 03:08:10;;;;;;;10.55;7.32;;;16.20;99.90;;;;;;4962688;29;20081;-92
2021/09/11 03:10:36;;;;;;;14.88;9.18;;;16.10;99.90;;;;;;4965494;29;20035;-92
2021/09/11 03:13:02;;;;;;;17.65;10.57;;;16.10;99.90;;;;;;4949136;29;20039;-92
2021/09/11 03:15:27;;;;;;;11.93;8.35;;;16.10;99.90;;;;;;4965503;29;20066;-94
2021/09/11 03:17:53;;;;;;;11.35;7.70;;;16.10;99.90;;;;;;4949089;29;20038;-94
2021/09/11 03:20:19;;;;;;;10.68;7.22;;;16.00;99.90;;;;;;4949428;29;20114;-88
2021/09/11 03:22:45;;;;;;;8.63;6.43;;;16.00;99.90;;;;;;4950245;29;20028;-94
2021/09/11 03:25:11;;;;;;;11.80;7.03;;;16.00;99.90;;;;;;4936162;28;20039;-91
2021/09/11 03:27:37;;;;;;;12.32;6.88;;;16.00;99.90;;;;;;4953195;29;20015;-91
2021/09/11 03:30:03;;;;;;;11.50;7.05;;;15.90;99.90;;;;;;4949864;29;20042;-88
2021/09/11 03:32:29;;;;;;;12.27;6.63;;;15.90;99.90;;;;;;4939755;29;20027;-89
2021/09/11 03:34:54;;;;;;;12.63;7.30;;;15.90;99.90;;;;;;4957813;29;20062;-91
2021/09/11 03:37:20;;;;;;;15.30;7.85;;;15.90;99.90;;;;;;4971474;28;20035;-90
2021/09/11 03:39:46;;;;;;;9.98;7.05;;;15.80;99.90;;;;;;4949884;29;20031;-87
2021/09/11 03:42:11;;;;;;;11.40;6.35;;;15.80;99.90;;;;;;4955385;29;20031;-92
2021/09/11 03:44:37;;;;;;;9.35;6.78;;;15.80;99.90;;;;;;4957552;28;20586;-91
2021/09/11 03:47:03;;;;;;;12.43;7.78;;;15.80;99.90;;;;;;4958601;28;20403;-91
2021/09/11 03:49:28;;;;;;;10.43;6.82;;;15.80;99.90;;;;;;4943512;28;20114;-93
2021/09/11 03:51:54;;;;;;;9.88;6.40;;;15.80;99.90;;;;;;4968683;28;20038;-92
2021/09/11 03:54:20;;;;;;;8.85;6.18;;;15.80;99.90;;;;;;4966433;28;20117;-93
2021/09/11 03:56:45;;;;;;;10.50;6.68;;;15.80;99.90;;;;;;4953269;28;20023;-92
2021/09/11 03:59:11;;;;;;;14.30;8.38;;;15.70;99.90;;;;;;4968690;28;20035;-93
2021/09/11 04:01:36;;;;;;;14.05;9.50;;;15.70;99.90;;;;;;4989720;28;20046;-93
2021/09/11 04:04:02;;;;;;;13.65;9.18;;;15.70;99.90;;;;;;4972959;28;20102;-94
2021/09/11 04:06:27;;;;;;;14.43;8.98;;;15.70;99.90;;;;;;4972653;28;20430;-93
2021/09/11 04:08:53;;;;;;;10.60;7.50;;;15.70;99.90;;;;;;4972403;28;20078;-92
2021/09/11 04:11:19;;;;;;;11.75;7.65;;;15.70;99.90;;;;;;4956324;28;20023;-90
2021/09/11 04:13:44;;;;;;;11.23;7.88;;;15.70;99.90;;;;;;4972456;28;20037;-87
2021/09/11 04:16:10;;;;;;;10.38;7.50;;;15.70;99.90;;;;;;4972176;28;20117;-89
2021/09/11 04:18:35;;;;;;;13.10;8.10;;;15.70;99.90;;;;;;4972025;28;20077;-89
2021/09/11 04:21:01;;;;;;;11.40;7.72;;;15.60;99.90;;;;;;4972517;28;20026;-91
2021/09/11 04:23:27;;;;;;;13.30;8.13;;;15.70;99.90;;;;;;4972524;28;20030;-88
2021/09/11 04:25:52;;;;;;;11.93;7.60;;;15.70;99.90;;;;;;4972403;28;20031;-88
2021/09/11 04:28:18;;;;;;;15.30;7.88;;;15.60;99.90;;;;;;4971865;28;20035;-87
2021/09/11 04:30:47;;;;;;;13.32;8.60;;;15.60;99.90;;;;;;4988435;28;20038;-94
2021/09/11 04:33:12;;;;;;;10.48;8.05;;;15.60;99.90;;;;;;4972331;28;20034;-88
2021/09/11 04:35:38;;;;;;;12.13;8.48;;;15.60;99.90;;;;;;4972300;28;20030;-88
2021/09/11 04:38:03;;;;;;;12.38;8.27;;;15.60;99.90;;;;;;4988445;28;20089;-92
2021/09/11 04:40:29;;;;;;;10.82;7.95;;;15.60;99.90;;;;;;4971451;28;20755;-90
2021/09/11 04:42:56;;;;;;;8.60;6.93;;;15.70;99.90;;;;;;4971948;28;20365;-88
2021/09/11 04:45:23;;;;;;;17.10;11.80;;;15.70;99.90;;;;;;4971466;28;20026;-90
2021/09/11 04:47:49;;;;;;;13.45;9.32;;;15.60;99.90;;;;;;4971549;28;20060;-87
2021/09/11 04:50:14;;;;;;;11.23;9.20;;;15.60;99.90;;;;;;4945017;28;20047;-90
2021/09/11 04:52:40;;;;;;;13.18;8.85;;;15.60;99.90;;;;;;4972312;28;20384;-89
2021/09/11 04:55:07;;;;;;;14.93;9.80;;;15.60;99.90;;;;;;4968699;29;20123;-88
2021/09/11 04:57:34;;;;;;;12.70;9.43;;;15.70;99.90;;;;;;4970630;28;20045;-90
2021/09/11 05:00:00;;;;;;;15.75;9.45;;;15.70;99.90;;;;;;4956729;29;20028;-87
2021/09/11 05:02:25;;;;;;;13.13;8.48;;;15.70;99.90;;;;;;4968435;29;20384;-87
2021/09/11 05:04:51;;;;;;;12.63;8.90;;;15.70;99.90;;;;;;4971620;28;20098;-87
2021/09/11 05:07:17;;;;;;;13.40;9.15;;;15.80;99.90;;;;;;4955794;29;20062;-90
2021/09/11 05:09:42;;;;;;;11.93;9.05;;;15.80;99.90;;;;;;4970824;28;20047;-92
2021/09/11 05:12:08;;;;;;;12.25;8.35;;;15.80;99.90;;;;;;4954067;29;20136;-90
2021/09/11 05:14:33;;;;;;;10.82;8.20;;;15.80;99.90;;;;;;4952150;29;20061;-89
2021/09/11 05:16:59;;;;;;;13.30;9.43;;;15.80;99.90;;;;;;4949594;29;20030;-89
2021/09/11 05:19:25;;;;;;;13.80;9.55;;;15.80;99.90;;;;;;4968090;29;20464;-89
2021/09/11 05:21:50;;;;;;;13.07;8.80;;;15.80;99.90;;;;;;4967973;29;20027;-90
2021/09/11 05:24:16;;;;;;;12.70;8.27;;;15.80;99.90;;;;;;4967791;29;20488;-86
2021/09/11 05:26:43;;;;;;;10.38;7.65;;;15.80;99.90;;;;;;4949440;28;20031;-86
2021/09/11 05:29:08;;;;;;;12.35;7.63;;;15.80;99.90;;;;;;4967061;28;20039;-86
2021/09/11 05:31:34;;;;;;;11.60;8.40;;;15.90;99.90;;;;;;4967073;29;20127;-86
2021/09/11 05:34:00;;;;;;;12.55;8.02;;;15.80;99.90;;;;;;4949186;29;20023;-91
2021/09/11 05:36:26;;;;;;;13.98;7.82;;;15.90;99.90;;;;;;4969931;28;20027;-91
2021/09/11 05:38:51;;;;;;;13.02;7.68;;;15.90;99.90;;;;;;4968226;29;20031;-86
2021/09/11 05:41:17;;;;;;;10.23;6.40;;;15.90;99.90;;;;;;4951597;29;20023;-89
2021/09/11 05:43:42;;;;;;;10.65;7.25;;;15.90;99.90;;;;;;4968018;29;20038;-86
2021/09/11 05:46:08;;;;;;;12.45;7.68;;;15.90;99.90;;;;;;4966700;29;20039;-86
2021/09/11 05:48:36;;;;;;;9.88;5.43;;;15.90;99.90;;;;;;4969794;28;20086;-87
2021/09/11 05:51:02;;;;;;;10.93;5.82;;;16.00;99.90;;;;;;4965308;29;20651;-87
2021/09/11 05:53:28;;;;;;;8.05;6.50;;;16.00;99.90;;;;;;4951190;29;20042;-87
2021/09/11 05:55:53;;;;;;;9.45;6.82;;;15.90;99.90;;;;;;4951034;29;20202;-86
2021/09/11 05:58:20;;;;;;;7.30;5.38;;;16.00;99.90;;;;;;4949696;29;20091;-87
2021/09/11 06:00:46;;;;;;;10.32;5.53;;;16.00;99.90;;;;;;4950538;29;20062;-86
2021/09/11 06:03:12;;;;;;;8.02;5.15;;;16.00;99.90;;;;;;4950396;29;20090;-87
2021/09/11 06:05:38;;;;;;;8.18;6.18;;;16.00;99.90;;;;;;4952030;29;20035;-86
2021/09/11 06:08:04;;;;;;;12.35;7.25;;;16.00;99.90;;;;;;4950303;29;20034;-86
2021/09/11 06:10:30;;;;;;;9.10;6.55;;;16.00;99.90;;;;;;4950767;29;20062;-86
2021/09/11 06:12:55;;;;;;;7.70;5.20;;;16.00;99.90;;;;;;4949688;29;20034;-86
2021/09/11 06:15:22;;;;;;;6.43;4.90;;;16.10;99.90;;;;;;4950521;29;20121;-86
2021/09/11 06:17:48;;;;;;;9.60;6.20;;;16.10;99.90;;;;;;4950185;29;20070;-86
2021/09/11 06:20:13;;;;;;;9.85;4.90;;;16.20;99.90;;;;;;4951697;29;20134;-86
2021/09/11 06:22:39;;;;;;;8.88;6.25;;;16.20;99.90;;;;;;4950980;29;20035;-85
2021/09/11 06:25:05;;;;;;;12.68;6.90;;;16.10;99.90;;;;;;4967386;28;20031;-86
2021/09/11 06:27:31;;;;;;;8.63;5.57;;;16.20;99.90;;;;;;4965619;28;20066;-87
2021/09/11 06:29:57;;;;;;;6.78;4.63;;;16.30;99.90;;;;;;4950174;29;20071;-85
2021/09/11 06:32:22;;;;;;;6.65;4.72;;;16.30;99.90;;;;;;4952140;29;20027;-84
2021/09/11 06:34:48;;;;;;;6.68;4.75;;;16.40;99.90;;;;;;4951690;29;20039;-85
2021/09/11 06:37:13;;;;;;;6.57;3.20;;;16.30;99.90;;;;;;4951385;29;20424;-87
2021/09/11 06:39:39;;;;;;;6.88;5.25;;;16.40;99.90;;;;;;4965826;28;20051;-89
2021/09/11 06:42:05;;;;;;;6.80;5.03;;;16.40;99.90;;;;;;4933721;29;20054;-88
2021/09/11 06:44:30;;;;;;;6.57;5.00;;;16.40;99.90;;;;;;4963010;29;20043;-86
2021/09/11 06:46:56;;;;;;;7.65;4.22;;;16.50;99.90;;;;;;4948950;29;20027;-86
2021/09/11 06:49:25;;;;;;;5.68;3.08;;;16.50;99.90;;;;;;4957512;29;20105;-88
2021/09/11 06:51:50;;;;;;;6.50;4.78;;;16.50;99.90;;;;;;4957347;29;20488;-88
2021/09/11 06:54:16;;;;;;;9.65;4.97;;;16.50;99.90;;;;;;4957645;29;20062;-89
2021/09/11 06:56:42;;;;;;;7.03;4.93;;;16.50;99.90;;;;;;4965433;29;20088;-90
2021/09/11 06:59:07;;;;;;;5.82;3.90;;;16.50;99.90;;;;;;4949984;29;20043;-90
2021/09/11 07:01:35;;;;;;;6.50;4.22;;;16.50;99.90;;;;;;4949597;29;20062;-89
2021/09/11 07:04:00;;;;;;;6.55;4.78;;;16.60;99.90;;;;;;4947762;29;20031;-90
2021/09/11 07:06:26;;;;;;;5.75;3.97;;;16.70;99.90;;;;;;4949752;29;20038;-87
2021/09/11 07:08:51;;;;;;;8.95;5.47;;;16.70;99.90;;;;;;4950187;29;20153;-89
2021/09/11 07:11:17;;;;;;;5.20;3.97;;;16.70;99.90;;;;;;4949847;29;20011;-88
2021/09/11 07:13:43;;;;;;;5.75;4.55;;;16.70;99.90;;;;;;4965135;28;20043;-88
2021/09/11 07:16:08;;;;;;;9.80;5.53;;;16.60;99.90;;;;;;4938492;28;20042;-87
2021/09/11 07:18:52;;;;;;;7.75;4.80;;;16.60;99.90;;;;;;4967103;28;20031;-89
2021/09/11 07:21:18;;;;;;;8.32;4.43;;;16.70;99.90;;;;;;4949289;29;20035;-88
2021/09/11 07:23:43;;;;;;;9.30;5.70;;;16.80;99.90;;;;;;4949474;29;20046;-90
2021/09/11 07:26:09;;;;;;;9.55;5.53;;;16.70;99.90;;;;;;4951722;28;20058;-91
2021/09/11 07:28:35;;;;;;;9.27;5.60;;;16.70;99.90;;;;;;4949234;29;20040;-89
2021/09/11 07:31:00;;;;;;;10.00;6.28;;;16.70;99.90;;;;;;4933530;29;20035;-90
2021/09/11 07:33:26;;;;;;;8.65;5.80;;;16.80;99.90;;;;;;4964889;29;20019;-88
2021/09/11 07:35:52;;;;;;;7.38;5.38;;;16.90;99.90;;;;;;4948429;28;20062;-90
2021/09/11 07:38:17;;;;;;;8.40;5.53;;;16.90;99.90;;;;;;4949170;28;20082;-89
2021/09/11 07:40:43;;;;;;;8.48;6.10;;;16.90;99.90;;;;;;4949038;28;20176;-90
2021/09/11 07:43:10;;;;;;;10.70;6.57;;;17.00;99.90;;;;;;4949509;29;20054;-89
2021/09/11 07:45:37;;;;;;;9.18;6.03;;;17.00;99.90;;;;;;4948819;29;20027;-86
2021/09/11 07:48:04;;;;;;;8.55;5.88;;;17.20;99.90;;;;;;4953409;29;20110;-86
2021/09/11 07:50:30;;;;;;;8.65;6.25;;;17.20;99.90;;;;;;4979675;28;20046;-86
2021/09/11 07:52:56;;;;;;;7.72;5.88;;;17.30;99.90;;;;;;4967932;28;20039;-86
2021/09/11 07:55:22;;;;;;;9.15;7.55;;;17.50;99.90;;;;;;4967673;28;20053;-88
2021/09/11 07:57:48;;;;;;;9.52;6.45;;;17.50;99.90;;;;;;4967934;28;20057;-86
2021/09/11 08:00:15;;;;;;;7.25;5.55;;;17.60;99.90;;;;;;4951978;28;20038;-92
2021/09/11 08:02:40;;;;;;;13.07;9.35;;;17.70;99.90;;;;;;4970970;28;20027;-89
2021/09/11 08:05:06;;;;;;;8.35;7.32;;;17.60;99.90;;;;;;4967610;28;20035;-94
2021/09/11 08:07:32;;;;;;;10.02;7.25;;;17.70;99.90;;;;;;4984713;28;20534;-86
2021/09/11 08:09:57;;;;;;;14.25;10.35;;;17.80;99.90;;;;;;4967624;28;20098;-86
2021/09/11 08:12:23;;;;;;;12.68;7.95;;;17.60;99.90;;;;;;4969335;28;20034;-91
2021/09/11 08:14:48;;;;;;;9.98;7.35;;;17.80;99.90;;;;;;4968607;28;20031;-85
2021/09/11 08:17:14;;;;;;;10.18;7.43;;;18.00;99.90;;;;;;4968769;28;20091;-91
2021/09/11 08:19:40;;;;;;;9.60;6.32;;;17.90;99.90;;;;;;4969391;28;20031;-90
2021/09/11 08:22:06;;;;;;;7.78;6.03;;;18.20;99.90;;;;;;4966336;28;20472;-95
2021/09/11 08:24:31;;;;;;;8.35;6.63;;;18.20;99.90;;;;;;4968434;28;20054;-91
2021/09/11 08:26:57;;;;;;;7.85;6.00;;;18.30;99.90;;;;;;4968656;28;20104;-92
2021/09/11 08:29:23;;;;;;;11.20;8.25;;;18.40;99.90;;;;;;4961493;29;20047;-94
2021/09/11 08:31:49;;;;;;;8.45;5.38;;;18.50;99.90;;;;;;4974594;28;20499;-85
2021/09/11 08:34:14;;;;;;;7.57;6.72;;;18.60;99.90;;;;;;4982367;28;20125;-92
2021/09/11 08:36:40;;;;;;;8.18;6.13;;;18.50;99.90;;;;;;4961274;28;20056;-94
2021/09/11 08:39:07;;;;;;;10.90;8.18;;;18.60;99.90;;;;;;4966212;28;20116;-91
2021/09/11 08:41:36;;;;;;;9.30;6.90;;;18.60;99.90;;;;;;4965088;28;20027;-87
2021/09/11 08:44:03;;;;;;;9.55;6.78;;;18.80;99.90;;;;;;4982148;28;20039;-91
2021/09/11 08:46:29;;;;;;;9.98;7.15;;;19.00;99.90;;;;;;4970992;28;20034;-90
2021/09/11 08:48:56;;;;;;;12.30;7.60;;;19.10;99.90;;;;;;4982089;28;20077;-95
2021/09/11 08:51:23;;;;;;;7.30;6.20;;;19.30;99.90;;;;;;4986325;28;20049;-91
2021/09/11 08:53:49;;;;;;;8.88;5.60;;;19.50;99.90;;;;;;4970116;28;20086;-90
2021/09/11 08:56:15;;;;;;;7.95;6.18;;;19.60;99.90;;;;;;4978328;28;20036;-94
2021/09/11 08:58:40;;;;;;;6.97;5.50;;;19.60;99.90;;;;;;4969898;28;20057;-93
2021/09/11 09:01:06;;;;;;;7.80;6.85;;;19.80;99.90;;;;;;4989452;28;20038;-91
2021/09/11 09:03:36;;;;;;;8.13;6.35;;;19.70;99.90;;;;;;4986993;28;20038;-91
2021/09/11 09:06:14;;;;;;;;;;;19.60;99.90;;;;;;4975652;28;20029;-90
2021/09/11 09:08:39;;;;;;;13.75;8.25;;;19.40;99.90;;;;;;4974724;28;19929;-89
2021/09/11 09:11:17;;;;;;;11.40;8.20;;;19.60;99.90;;;;;;4977572;28;20018;-94
2021/09/11 09:13:57;;;;;;;8.65;6.93;;;19.60;99.90;;;;;;4998692;28;20034;-90
2021/09/11 09:16:24;;;;;;;11.43;5.97;;;19.80;99.90;;;;;;4982400;28;20486;-91
2021/09/11 09:18:51;;;;;;;10.52;8.32;;;19.70;99.90;;;;;;4970261;28;20038;-93
2021/09/11 09:21:22;;;;;;;7.75;6.20;;;19.40;99.90;;;;;;4971856;28;20050;-92
2021/09/11 09:23:53;;;;;;;15.02;11.30;;;19.40;99.90;;;;;;4955809;28;20034;-92
2021/09/11 09:26:20;;;;;;;13.75;9.80;;;19.10;99.90;;;;;;4987221;28;20027;-93
2021/09/11 09:29:07;;;;;;;12.68;10.20;;;19.00;99.90;;;;;;4985627;28;20043;-92
2021/09/11 09:31:34;;;;;;;14.90;11.82;;;19.20;99.90;;;;;;4968480;28;20511;-93
2021/09/11 09:33:59;;;;;;;10.93;9.57;;;19.40;99.90;;;;;;4970385;28;20058;-93
2021/09/11 09:36:30;;;;;;;12.50;9.10;;;19.60;99.90;;;;;;4970113;28;20027;-94
2021/09/11 09:39:00;;;;;;;7.47;6.68;;;19.80;99.90;;;;;;4970482;28;20035;-93
2021/09/11 09:41:49;;;;;;;14.35;8.43;;;20.00;99.90;;;;;;4970927;28;20090;-92
2021/09/11 09:44:17;;;;;;;9.90;7.80;;;20.00;99.90;;;;;;4969005;28;20039;-93
2021/09/11 09:46:45;;;;;;;13.30;10.18;;;19.70;99.90;;;;;;4967550;28;20043;-92
2021/09/11 09:49:15;;;;;;;10.57;6.93;;;19.50;99.90;;;;;;4970385;28;20047;-94
2021/09/11 09:51:41;;;;;;;10.95;8.93;;;19.80;99.90;;;;;;4970539;28;20038;-94
2021/09/11 09:54:07;;;;;;;7.95;5.88;;;19.80;99.90;;;;;;4985951;28;20034;-92
2021/09/11 09:56:32;;;;;;;18.15;10.27;;;19.90;99.90;;;;;;4970358;28;20122;-92
2021/09/11 09:59:00;;;;;;;15.18;11.15;;;19.50;99.90;;;;;;4969736;28;20146;-93
2021/09/11 10:01:29;;;;;;;15.63;11.35;;;19.60;99.90;;;;;;4970414;28;20050;-93
2021/09/11 10:03:55;;;;;;;15.88;11.90;;;19.70;99.90;;;;;;4987699;28;20039;-92
2021/09/11 10:06:30;;;;;;;12.90;10.13;;;19.60;99.90;;;;;;4955059;28;20038;-95
2021/09/11 10:09:05;;;;;;;10.38;8.27;;;20.00;99.90;;;;;;4953715;28;20209;-95
2021/09/11 10:11:36;;;;;;;9.43;7.50;;;20.10;99.90;;;;;;4968014;28;20058;-94
2021/09/11 10:14:09;;;;;;;9.90;8.13;;;19.80;99.90;;;;;;4955292;28;20061;-96
2021/09/11 10:16:38;;;;;;;11.27;8.73;;;19.70;99.90;;;;;;4968574;28;20027;-94
2021/09/11 10:19:21;;;;;;;12.93;8.80;;;19.60;99.90;;;;;;4970553;28;20041;-94
2021/09/11 10:21:48;;;;;;;10.95;9.13;;;19.60;99.90;;;;;;4952917;28;20475;-94
2021/09/11 10:24:14;;;;;;;9.32;7.82;;;19.50;99.90;;;;;;4969880;28;20035;-94
2021/09/11 10:26:50;;;;;;;9.10;6.80;;;19.80;99.90;;;;;;4983791;28;20030;-92
2021/09/11 10:29:50;;;;;;;11.27;10.07;;;19.90;99.90;;;;;;4983982;28;20031;-93
2021/09/11 10:32:17;;;;;;;;;;;19.50;99.90;;;;;;4968924;28;20435;-90
2021/09/11 10:34:46;;;;;;;12.15;10.35;;;19.30;99.90;;;;;;4954916;28;19909;-92
2021/09/11 10:37:50;;;;;;;15.30;12.03;;;19.30;99.90;;;;;;4970471;28;20102;-92
2021/09/11 10:40:36;;;;;;;17.00;12.15;;;19.20;99.90;;;;;;4944664;28;20031;-92
2021/09/11 10:43:05;;;;;;;15.32;12.02;;;19.10;99.90;;;;;;4967091;28;20035;-93
2021/09/11 10:46:11;;;;;;;11.18;9.20;;;19.10;99.90;;;;;;4967184;28;20027;-93
2021/09/11 10:48:39;;;;;;;17.42;10.93;;;19.40;99.90;;;;;;5027655;23;20058;-94
2021/09/11 10:51:34;;;;;;;12.18;10.38;;;19.40;99.90;;;;;;5005980;28;20481;-93
2021/09/11 10:54:02;;;;;;;10.82;9.18;;;19.50;99.90;;;;;;4990066;28;20068;-92
2021/09/11 10:56:39;;;;;;;14.55;10.18;;;19.80;99.90;;;;;;4986690;28;20038;-94
2021/09/11 10:59:14;;;;;;;13.60;10.23;;;19.60;99.90;;;;;;4983689;28;20049;-94
2021/09/11 11:02:16;;;;;;;9.20;8.18;;;19.70;99.90;;;;;;4986530;28;20380;-94
2021/09/11 11:04:47;;;;;;;10.68;8.30;;;19.90;99.90;;;;;;5001884;28;20049;-91
2021/09/11 11:07:21;;;;;;;14.00;11.43;;;19.70;99.90;;;;;;4989188;28;20094;-94
2021/09/11 11:10:07;;;;;;;14.18;10.23;;;19.60;99.90;;;;;;4985317;28;20042;-94
2021/09/11 11:12:41;;;;;;;10.50;8.77;;;19.70;99.90;;;;;;4988782;28;20098;-87
2021/09/11 11:15:28;;;;;;;9.75;8.55;;;19.80;99.90;;;;;;4990088;28;20030;-94
2021/09/11 11:17:55;;;;;;;12.52;9.27;;;19.80;99.90;;;;;;5020992;28;20038;-93
2021/09/11 11:20:27;;;;;;;12.90;8.85;;;20.00;99.90;;;;;;4992106;28;20033;-93
2021/09/11 11:22:57;;;;;;;12.52;9.63;;;19.80;99.90;;;;;;5021815;28;20025;-94
2021/09/11 11:25:33;;;;;;;16.80;10.80;;;19.80;99.90;;;;;;4991450;28;20129;-91
2021/09/11 11:28:00;;;;;;;13.05;8.52;;;19.90;99.90;;;;;;5005257;28;20053;-94
2021/09/11 11:30:26;;;;;;;11.43;7.70;;;20.00;99.90;;;;;;5005392;28;20037;-93
2021/09/11 11:32:52;;;;;;;8.38;7.32;;;20.20;99.90;;;;;;5005697;28;20030;-94
2021/09/11 11:35:18;;;;;;;12.55;6.80;;;20.30;99.90;;;;;;5007886;28;20053;-93
2021/09/11 11:37:44;;;;;;;10.48;7.78;;;20.40;99.90;;;;;;5007682;28;20081;-89
2021/09/11 11:40:15;;;;;;;15.15;8.40;;;20.30;99.90;;;;;;4973148;28;20046;-94
2021/09/11 11:42:42;;;;;;;11.85;8.93;;;20.30;99.90;;;;;;5007056;28;20033;-89
2021/09/11 11:45:10;;;;;;;9.32;7.90;;;20.30;99.90;;;;;;5006495;28;20038;-89
2021/09/11 11:47:45;;;;;;;9.82;7.30;;;20.40;99.90;;;;;;5024140;28;20347;-89
2021/09/11 11:50:32;;;;;;;11.73;7.68;;;20.40;99.90;;;;;;4989778;28;20041;-92
2021/09/11 11:53:01;;;;;;;8.35;6.68;;;20.30;99.90;;;;;;4995259;28;20092;-89
2021/09/11 11:55:30;;;;;;;11.75;7.82;;;20.50;99.90;;;;;;4980008;28;20038;-90
2021/09/11 11:58:11;;;;;;;12.75;9.40;;;20.40;99.90;;;;;;4985748;28;20058;-88
2021/09/11 12:00:48;;;;;;;12.50;9.38;;;20.40;99.90;;;;;;4994206;28;20084;-89
2021/09/11 12:03:36;;;;;;;9.40;8.35;;;20.40;99.90;;;;;;5005251;28;20022;-88
2021/09/11 12:06:03;;;;;;;8.95;7.18;;;20.50;99.90;;;;;;4993485;28;20061;-91
2021/09/11 12:08:31;;;;;;;10.10;6.57;;;20.60;99.90;;;;;;4987339;28;20049;-91
2021/09/11 12:10:57;;;;;;;8.68;6.93;;;20.60;99.90;;;;;;4984987;28;20174;-90
2021/09/11 12:13:24;;;;;;;11.00;8.13;;;20.60;99.90;;;;;;4979824;28;20030;-91
2021/09/11 12:15:50;;;;;;;15.57;10.25;;;20.50;99.90;;;;;;4996353;28;20053;-88
2021/09/11 12:18:17;;;;;;;11.98;9.32;;;20.40;99.90;;;;;;4979693;28;20029;-88
2021/09/11 12:20:50;;;;;;;11.63;9.10;;;20.60;99.90;;;;;;4980289;28;20082;-86
2021/09/11 12:23:28;;;;;;;9.45;7.85;;;20.80;99.90;;;;;;4999214;28;20088;-89
2021/09/11 12:25:58;;;;;;;12.55;10.25;;;21.10;99.90;;;;;;4983492;28;20104;-90
2021/09/11 12:28:46;;;;;;;10.45;8.73;;;21.30;99.90;;;;;;4988752;28;20042;-87
2021/09/11 12:31:24;;;;;;;8.02;6.75;;;21.40;99.90;;;;;;4995561;28;20026;-89
2021/09/11 12:33:52;;;;;;;8.75;7.85;;;22.00;99.90;;;;;;4985446;28;20129;-87
2021/09/11 12:36:37;;;;;;;9.77;7.95;;;21.60;99.90;;;;;;5001163;28;20029;-88
2021/09/11 12:39:24;;;;;;;14.13;10.90;;;22.40;99.90;;;;;;4997548;28;20052;-89
2021/09/11 12:41:51;;;;;;;9.18;8.15;;;22.00;99.90;;;;;;4987240;28;20053;-90
2021/09/11 12:44:18;;;;;;;9.65;8.73;;;22.00;99.90;;;;;;4980823;28;20070;-91
2021/09/11 12:49:27;;;;;;;9.48;7.78;;;21.60;99.90;;;;;;5277401;23;20070;-92